sensor_id;sensor_type;location;lat;lon;timestamp;pressure;altitude;pressure_sealevel;temperature;humidity
84382;BME280;74572;51.834;5.820;2024-01-10T00:02:01;103212.50;;;-4.70;53.01
84382;BME280;74572;51.834;5.820;2024-01-10T00:04:27;103199.38;;;-4.75;52.99
84382;BME280;74572;51.834;5.820;2024-01-10T00:06:54;103195.31;;;-4.80;53.29
84382;BME280;74572;51.834;5.820;2024-01-10T00:09:19;103199.34;;;-4.80;53.89
84382;BME280;74572;51.834;5.820;2024-01-10T00:11:45;103206.59;;;-4.76;53.37
84382;BME280;74572;51.834;5.820;2024-01-10T00:14:10;103188.09;;;-4.78;53.80
84382;BME280;74572;51.834;5.820;2024-01-10T00:16:36;103188.75;;;-4.79;54.35
84382;BME280;74572;51.834;5.820;2024-01-10T00:19:01;103188.56;;;-4.75;54.46
84382;BME280;74572;51.834;5.820;2024-01-10T00:21:27;103189.94;;;-4.72;54.50
84382;BME280;74572;51.834;5.820;2024-01-10T00:23:52;103184.72;;;-4.73;54.21
84382;BME280;74572;51.834;5.820;2024-01-10T00:26:18;103173.66;;;-4.75;53.87
84382;BME280;74572;51.834;5.820;2024-01-10T00:28:43;103178.16;;;-4.84;54.67
84382;BME280;74572;51.834;5.820;2024-01-10T00:31:11;103165.50;;;-4.85;54.59
84382;BME280;74572;51.834;5.820;2024-01-10T00:33:36;103187.38;;;-4.89;54.87
84382;BME280;74572;51.834;5.820;2024-01-10T00:36:04;103170.91;;;-4.88;55.18
84382;BME280;74572;51.834;5.820;2024-01-10T00:38:29;103176.97;;;-4.92;55.58
84382;BME280;74572;51.834;5.820;2024-01-10T00:40:56;103190.50;;;-4.95;54.91
84382;BME280;74572;51.834;5.820;2024-01-10T00:43:22;103177.63;;;-4.98;55.18
84382;BME280;74572;51.834;5.820;2024-01-10T00:45:47;103181.25;;;-5.02;55.36
84382;BME280;74572;51.834;5.820;2024-01-10T00:48:13;103177.16;;;-5.07;55.90
84382;BME280;74572;51.834;5.820;2024-01-10T00:50:38;103173.97;;;-5.11;56.17
84382;BME280;74572;51.834;5.820;2024-01-10T00:53:04;103188.59;;;-5.13;55.61
84382;BME280;74572;51.834;5.820;2024-01-10T00:55:29;103178.22;;;-5.16;56.38
84382;BME280;74572;51.834;5.820;2024-01-10T00:57:55;103185.66;;;-5.16;56.62
84382;BME280;74572;51.834;5.820;2024-01-10T01:00:20;103176.63;;;-5.15;56.78
84382;BME280;74572;51.834;5.820;2024-01-10T01:02:46;103169.63;;;-5.18;56.75
84382;BME280;74572;51.834;5.820;2024-01-10T01:05:11;103162.84;;;-5.19;56.87
84382;BME280;74572;51.834;5.820;2024-01-10T01:07:38;103172.09;;;-5.18;57.42
84382;BME280;74572;51.834;5.820;2024-01-10T01:10:04;103178.44;;;-5.20;57.62
84382;BME280;74572;51.834;5.820;2024-01-10T01:12:30;103162.59;;;-5.26;57.54
84382;BME280;74572;51.834;5.820;2024-01-10T01:14:57;103175.00;;;-5.26;57.44
84382;BME280;74572;51.834;5.820;2024-01-10T01:17:23;103159.00;;;-5.28;58.03
84382;BME280;74572;51.834;5.820;2024-01-10T01:19:48;103160.13;;;-5.26;57.98
84382;BME280;74572;51.834;5.820;2024-01-10T01:22:14;103149.53;;;-5.25;58.20
84382;BME280;74572;51.834;5.820;2024-01-10T01:24:40;103153.34;;;-5.27;58.13
84382;BME280;74572;51.834;5.820;2024-01-10T01:27:06;103152.69;;;-5.26;58.70
84382;BME280;74572;51.834;5.820;2024-01-10T01:29:31;103170.91;;;-5.31;58.47
84382;BME280;74572;51.834;5.820;2024-01-10T01:31:57;103172.00;;;-5.35;58.73
84382;BME280;74572;51.834;5.820;2024-01-10T01:34:22;103172.00;;;-5.40;58.38
84382;BME280;74572;51.834;5.820;2024-01-10T01:36:48;103176.28;;;-5.39;59.14
84382;BME280;74572;51.834;5.820;2024-01-10T01:39:14;103176.75;;;-5.36;58.76
84382;BME280;74572;51.834;5.820;2024-01-10T01:41:43;103173.34;;;-5.37;59.22
84382;BME280;74572;51.834;5.820;2024-01-10T01:44:10;103171.53;;;-5.38;58.90
84382;BME280;74572;51.834;5.820;2024-01-10T01:46:35;103172.91;;;-5.40;59.19
84382;BME280;74572;51.834;5.820;2024-01-10T01:49:01;103165.66;;;-5.38;59.98
84382;BME280;74572;51.834;5.820;2024-01-10T01:51:28;103163.91;;;-5.39;59.23
84382;BME280;74572;51.834;5.820;2024-01-10T01:53:55;103172.44;;;-5.37;59.64
84382;BME280;74572;51.834;5.820;2024-01-10T01:56:22;103163.00;;;-5.34;59.75
84382;BME280;74572;51.834;5.820;2024-01-10T01:58:50;103159.63;;;-5.35;59.81
84382;BME280;74572;51.834;5.820;2024-01-10T02:01:18;103157.38;;;-5.39;59.86
84382;BME280;74572;51.834;5.820;2024-01-10T02:03:47;103159.38;;;-5.36;59.91
84382;BME280;74572;51.834;5.820;2024-01-10T02:06:13;103154.19;;;-5.38;59.80
84382;BME280;74572;51.834;5.820;2024-01-10T02:08:38;103157.13;;;-5.40;60.05
84382;BME280;74572;51.834;5.820;2024-01-10T02:11:04;103162.28;;;-5.44;60.19
84382;BME280;74572;51.834;5.820;2024-01-10T02:13:32;103142.44;;;-5.44;60.18
84382;BME280;74572;51.834;5.820;2024-01-10T02:15:59;103142.44;;;-5.44;60.13
84382;BME280;74572;51.834;5.820;2024-01-10T02:18:24;103137.69;;;-5.48;60.20
84382;BME280;74572;51.834;5.820;2024-01-10T02:20:50;103144.63;;;-5.51;60.53
84382;BME280;74572;51.834;5.820;2024-01-10T02:23:16;103139.44;;;-5.59;60.06
84382;BME280;74572;51.834;5.820;2024-01-10T02:25:41;103144.81;;;-5.56;60.45
84382;BME280;74572;51.834;5.820;2024-01-10T02:28:09;103142.81;;;-5.52;60.70
84382;BME280;74572;51.834;5.820;2024-01-10T02:30:36;103144.41;;;-5.53;60.43
84382;BME280;74572;51.834;5.820;2024-01-10T02:33:02;103136.50;;;-5.56;60.25
84382;BME280;74572;51.834;5.820;2024-01-10T02:35:28;103138.72;;;-5.58;60.71
84382;BME280;74572;51.834;5.820;2024-01-10T02:37:59;103141.22;;;-5.58;61.13
84382;BME280;74572;51.834;5.820;2024-01-10T02:40:26;103137.16;;;-5.57;60.44
84382;BME280;74572;51.834;5.820;2024-01-10T02:42:52;103137.63;;;-5.60;60.73
84382;BME280;74572;51.834;5.820;2024-01-10T02:45:18;103149.78;;;-5.56;60.42
84382;BME280;74572;51.834;5.820;2024-01-10T02:47:45;103139.88;;;-5.56;60.58
84382;BME280;74572;51.834;5.820;2024-01-10T02:50:11;103147.53;;;-5.54;60.90
84382;BME280;74572;51.834;5.820;2024-01-10T02:52:36;103143.50;;;-5.53;60.61
84382;BME280;74572;51.834;5.820;2024-01-10T02:55:02;103137.19;;;-5.51;60.73
84382;BME280;74572;51.834;5.820;2024-01-10T02:57:27;103139.00;;;-5.50;61.07
84382;BME280;74572;51.834;5.820;2024-01-10T02:59:53;103140.34;;;-5.52;61.29
84382;BME280;74572;51.834;5.820;2024-01-10T03:02:18;103129.94;;;-5.56;61.00
84382;BME280;74572;51.834;5.820;2024-01-10T03:04:44;103132.91;;;-5.52;60.66
84382;BME280;74572;51.834;5.820;2024-01-10T03:07:11;103135.63;;;-5.51;61.30
84382;BME280;74572;51.834;5.820;2024-01-10T03:09:37;103130.44;;;-5.52;61.06
84382;BME280;74572;51.834;5.820;2024-01-10T03:12:03;103129.94;;;-5.56;61.62
84382;BME280;74572;51.834;5.820;2024-01-10T03:14:28;103129.28;;;-5.54;61.34
84382;BME280;74572;51.834;5.820;2024-01-10T03:16:53;103120.72;;;-5.57;61.60
84382;BME280;74572;51.834;5.820;2024-01-10T03:19:19;103115.31;;;-5.60;61.59
84382;BME280;74572;51.834;5.820;2024-01-10T03:21:44;103126.56;;;-5.62;61.53
84382;BME280;74572;51.834;5.820;2024-01-10T03:24:10;103125.88;;;-5.61;61.23
84382;BME280;74572;51.834;5.820;2024-01-10T03:26:38;103122.28;;;-5.63;61.38
84382;BME280;74572;51.834;5.820;2024-01-10T03:29:03;103128.75;;;-5.69;61.51
84382;BME280;74572;51.834;5.820;2024-01-10T03:31:29;103125.84;;;-5.66;61.99
84382;BME280;74572;51.834;5.820;2024-01-10T03:33:57;103128.56;;;-5.65;61.93
84382;BME280;74572;51.834;5.820;2024-01-10T03:36:26;103127.22;;;-5.63;62.03
84382;BME280;74572;51.834;5.820;2024-01-10T03:38:51;103115.47;;;-5.69;61.96
84382;BME280;74572;51.834;5.820;2024-01-10T03:41:21;103114.31;;;-5.71;61.73
84382;BME280;74572;51.834;5.820;2024-01-10T03:43:47;103109.53;;;-5.75;61.44
84382;BME280;74572;51.834;5.820;2024-01-10T03:46:13;103109.97;;;-5.83;61.63
84382;BME280;74572;51.834;5.820;2024-01-10T03:48:38;103111.28;;;-5.85;62.35
84382;BME280;74572;51.834;5.820;2024-01-10T03:51:16;103107.25;;;-5.85;61.99
84382;BME280;74572;51.834;5.820;2024-01-10T03:53:44;103104.53;;;-5.86;61.85
84382;BME280;74572;51.834;5.820;2024-01-10T03:56:11;103114.44;;;-5.86;62.80
84382;BME280;74572;51.834;5.820;2024-01-10T03:58:37;103111.28;;;-5.91;62.21
84382;BME280;74572;51.834;5.820;2024-01-10T04:01:09;103110.59;;;-5.90;62.68
84382;BME280;74572;51.834;5.820;2024-01-10T04:03:35;103100.72;;;-5.84;62.43
84382;BME280;74572;51.834;5.820;2024-01-10T04:06:01;103096.66;;;-5.84;62.35
84382;BME280;74572;51.834;5.820;2024-01-10T04:08:30;103104.34;;;-5.82;62.50
84382;BME280;74572;51.834;5.820;2024-01-10T04:10:56;103100.03;;;-5.83;62.70
84382;BME280;74572;51.834;5.820;2024-01-10T04:13:21;103093.03;;;-5.86;62.64
84382;BME280;74572;51.834;5.820;2024-01-10T04:15:47;103085.84;;;-5.90;62.38
84382;BME280;74572;51.834;5.820;2024-01-10T04:18:12;103095.28;;;-5.87;62.66
84382;BME280;74572;51.834;5.820;2024-01-10T04:20:37;103084.47;;;-5.88;63.27
84382;BME280;74572;51.834;5.820;2024-01-10T04:23:03;103074.78;;;-5.86;62.65
84382;BME280;74572;51.834;5.820;2024-01-10T04:25:29;103073.22;;;-5.86;63.05
84382;BME280;74572;51.834;5.820;2024-01-10T04:27:54;103083.13;;;-5.86;62.66
84382;BME280;74572;51.834;5.820;2024-01-10T04:30:20;103085.84;;;-5.84;63.43
84382;BME280;74572;51.834;5.820;2024-01-10T04:32:46;103086.75;;;-5.89;63.61
84382;BME280;74572;51.834;5.820;2024-01-10T04:35:11;103098.47;;;-5.88;63.45
84382;BME280;74572;51.834;5.820;2024-01-10T04:37:38;103084.44;;;-5.94;63.48
84382;BME280;74572;51.834;5.820;2024-01-10T04:40:07;103087.84;;;-5.93;63.73
84382;BME280;74572;51.834;5.820;2024-01-10T04:42:32;103083.09;;;-5.97;63.42
84382;BME280;74572;51.834;5.820;2024-01-10T04:44:59;103088.72;;;-5.98;63.03
84382;BME280;74572;51.834;5.820;2024-01-10T04:47:24;103081.97;;;-5.99;63.44
84382;BME280;74572;51.834;5.820;2024-01-10T04:49:49;103090.06;;;-6.00;63.46
84382;BME280;74572;51.834;5.820;2024-01-10T04:52:15;103082.41;;;-5.96;64.21
84382;BME280;74572;51.834;5.820;2024-01-10T04:54:41;103068.44;;;-6.01;63.62
84382;BME280;74572;51.834;5.820;2024-01-10T04:57:08;103070.25;;;-6.00;63.94
84382;BME280;74572;51.834;5.820;2024-01-10T04:59:33;103083.47;;;-6.05;63.74
84382;BME280;74572;51.834;5.820;2024-01-10T05:02:00;103073.81;;;-6.04;63.88
84382;BME280;74572;51.834;5.820;2024-01-10T05:04:26;103082.38;;;-6.02;63.67
84382;BME280;74572;51.834;5.820;2024-01-10T05:06:52;103074.00;;;-6.08;63.76
84382;BME280;74572;51.834;5.820;2024-01-10T05:09:18;103077.38;;;-6.07;64.29
84382;BME280;74572;51.834;5.820;2024-01-10T05:11:43;103086.44;;;-6.02;63.92
84382;BME280;74572;51.834;5.820;2024-01-10T05:14:12;103082.09;;;-6.09;64.33
84382;BME280;74572;51.834;5.820;2024-01-10T05:16:38;103086.88;;;-6.05;64.30
84382;BME280;74572;51.834;5.820;2024-01-10T05:19:04;103084.16;;;-6.06;64.26
84382;BME280;74572;51.834;5.820;2024-01-10T05:21:31;103073.75;;;-6.09;63.92
84382;BME280;74572;51.834;5.820;2024-01-10T05:23:58;103079.84;;;-6.07;64.25
84382;BME280;74572;51.834;5.820;2024-01-10T05:26:24;103078.72;;;-6.09;64.34
84382;BME280;74572;51.834;5.820;2024-01-10T05:28:49;103072.19;;;-6.09;64.13
84382;BME280;74572;51.834;5.820;2024-01-10T05:31:15;103079.63;;;-6.09;64.39
84382;BME280;74572;51.834;5.820;2024-01-10T05:33:40;103081.38;;;-6.13;64.84
84382;BME280;74572;51.834;5.820;2024-01-10T05:36:10;103071.94;;;-6.10;64.69
84382;BME280;74572;51.834;5.820;2024-01-10T05:38:40;103084.34;;;-6.10;64.37
84382;BME280;74572;51.834;5.820;2024-01-10T05:41:06;103078.03;;;-6.08;64.39
84382;BME280;74572;51.834;5.820;2024-01-10T05:43:32;103080.53;;;-6.08;64.74
84382;BME280;74572;51.834;5.820;2024-01-10T05:45:57;103071.28;;;-6.09;65.01
84382;BME280;74572;51.834;5.820;2024-01-10T05:48:24;103086.16;;;-6.09;64.90
84382;BME280;74572;51.834;5.820;2024-01-10T05:50:54;103086.31;;;-6.13;65.26
84382;BME280;74572;51.834;5.820;2024-01-10T05:53:19;103080.03;;;-6.11;64.87
84382;BME280;74572;51.834;5.820;2024-01-10T05:55:44;103068.97;;;-6.19;65.32
84382;BME280;74572;51.834;5.820;2024-01-10T05:58:10;103086.06;;;-6.20;65.43
84382;BME280;74572;51.834;5.820;2024-01-10T06:00:36;103083.16;;;-6.18;65.01
84382;BME280;74572;51.834;5.820;2024-01-10T06:03:04;103073.69;;;-6.20;65.52
84382;BME280;74572;51.834;5.820;2024-01-10T06:05:29;103077.72;;;-6.21;65.27
84382;BME280;74572;51.834;5.820;2024-01-10T06:07:57;103068.31;;;-6.18;65.32
84382;BME280;74572;51.834;5.820;2024-01-10T06:10:22;103049.16;;;-6.19;64.93
84382;BME280;74572;51.834;5.820;2024-01-10T06:12:48;103065.13;;;-6.22;65.28
84382;BME280;74572;51.834;5.820;2024-01-10T06:15:14;103074.84;;;-6.18;65.57
84382;BME280;74572;51.834;5.820;2024-01-10T06:17:41;103072.13;;;-6.14;65.36
84382;BME280;74572;51.834;5.820;2024-01-10T06:20:10;103059.75;;;-6.14;65.19
84382;BME280;74572;51.834;5.820;2024-01-10T06:22:35;103052.53;;;-6.18;64.98
84382;BME280;74572;51.834;5.820;2024-01-10T06:25:01;103060.41;;;-6.21;65.44
84382;BME280;74572;51.834;5.820;2024-01-10T06:27:27;103058.09;;;-6.25;65.60
84382;BME280;74572;51.834;5.820;2024-01-10T06:29:53;103072.06;;;-6.25;65.71
84382;BME280;74572;51.834;5.820;2024-01-10T06:32:18;103078.34;;;-6.28;65.38
84382;BME280;74572;51.834;5.820;2024-01-10T06:34:43;103070.91;;;-6.28;65.38
84382;BME280;74572;51.834;5.820;2024-01-10T06:37:10;103068.19;;;-6.29;65.51
84382;BME280;74572;51.834;5.820;2024-01-10T06:39:35;103065.97;;;-6.28;65.39
84382;BME280;74572;51.834;5.820;2024-01-10T06:42:01;103063.25;;;-6.29;65.41
84382;BME280;74572;51.834;5.820;2024-01-10T06:44:29;103078.34;;;-6.28;65.68
84382;BME280;74572;51.834;5.820;2024-01-10T06:46:55;103068.63;;;-6.32;65.61
84382;BME280;74572;51.834;5.820;2024-01-10T06:49:21;103069.53;;;-6.31;65.42
84382;BME280;74572;51.834;5.820;2024-01-10T06:51:46;103066.81;;;-6.33;65.86
84382;BME280;74572;51.834;5.820;2024-01-10T06:54:11;103069.50;;;-6.37;65.81
84382;BME280;74572;51.834;5.820;2024-01-10T06:56:39;103067.28;;;-6.35;65.70
84382;BME280;74572;51.834;5.820;2024-01-10T06:59:04;103062.09;;;-6.37;65.68
84382;BME280;74572;51.834;5.820;2024-01-10T07:01:30;103064.56;;;-6.37;65.70
84382;BME280;74572;51.834;5.820;2024-01-10T07:03:56;103065.88;;;-6.39;65.72
84382;BME280;74572;51.834;5.820;2024-01-10T07:06:22;103069.94;;;-6.34;66.32
84382;BME280;74572;51.834;5.820;2024-01-10T07:08:49;103062.09;;;-6.37;65.67
84382;BME280;74572;51.834;5.820;2024-01-10T07:11:15;103051.72;;;-6.34;65.62
84382;BME280;74572;51.834;5.820;2024-01-10T07:13:42;103067.72;;;-6.32;65.88
84382;BME280;74572;51.834;5.820;2024-01-10T07:16:09;103065.47;;;-6.31;66.17
84382;BME280;74572;51.834;5.820;2024-01-10T07:18:35;103061.19;;;-6.32;66.00
84382;BME280;74572;51.834;5.820;2024-01-10T07:21:03;103084.44;;;-6.25;65.90
84382;BME280;74572;51.834;5.820;2024-01-10T07:23:28;103078.53;;;-6.32;65.72
84382;BME280;74572;51.834;5.820;2024-01-10T07:25:54;103099.47;;;-6.30;66.21
84382;BME280;74572;51.834;5.820;2024-01-10T07:28:19;103087.59;;;-6.27;65.73
84382;BME280;74572;51.834;5.820;2024-01-10T07:30:47;103090.53;;;-6.23;65.60
84382;BME280;74572;51.834;5.820;2024-01-10T07:33:13;103086.72;;;-6.21;65.77
84382;BME280;74572;51.834;5.820;2024-01-10T07:35:39;103079.53;;;-6.20;65.80
84382;BME280;74572;51.834;5.820;2024-01-10T07:38:05;103075.97;;;-6.16;65.18
84382;BME280;74572;51.834;5.820;2024-01-10T07:40:34;103072.34;;;-6.18;65.19
84382;BME280;74572;51.834;5.820;2024-01-10T07:43:00;103074.84;;;-6.13;65.68
84382;BME280;74572;51.834;5.820;2024-01-10T07:45:26;103071.03;;;-6.16;65.10
84382;BME280;74572;51.834;5.820;2024-01-10T07:47:53;103081.63;;;-6.12;65.39
84382;BME280;74572;51.834;5.820;2024-01-10T07:50:20;103084.09;;;-6.12;65.63
84382;BME280;74572;51.834;5.820;2024-01-10T07:52:46;103081.63;;;-6.12;65.89
84382;BME280;74572;51.834;5.820;2024-01-10T07:55:18;103078.75;;;-6.04;65.83
84382;BME280;74572;51.834;5.820;2024-01-10T07:57:43;103071.16;;;-6.00;65.56
84382;BME280;74572;51.834;5.820;2024-01-10T08:00:09;103081.06;;;-6.00;65.14
84382;BME280;74572;51.834;5.820;2024-01-10T08:02:40;103075.66;;;-5.97;65.54
84382;BME280;74572;51.834;5.820;2024-01-10T08:05:08;103073.84;;;-5.98;65.11
84382;BME280;74572;51.834;5.820;2024-01-10T08:07:35;103091.47;;;-5.91;65.24
84382;BME280;74572;51.834;5.820;2024-01-10T08:10:06;103087.66;;;-5.83;65.00
84382;BME280;74572;51.834;5.820;2024-01-10T08:12:34;103104.16;;;-5.78;64.75
84382;BME280;74572;51.834;5.820;2024-01-10T08:15:00;103102.34;;;-5.74;64.88
84382;BME280;74572;51.834;5.820;2024-01-10T08:17:26;103095.16;;;-5.72;64.94
84382;BME280;74572;51.834;5.820;2024-01-10T08:19:52;103090.44;;;-5.71;64.78
84382;BME280;74572;51.834;5.820;2024-01-10T08:22:19;103088.44;;;-5.68;64.93
84382;BME280;74572;51.834;5.820;2024-01-10T08:24:46;103089.34;;;-5.67;64.16
84382;BME280;74572;51.834;5.820;2024-01-10T08:27:11;103089.56;;;-5.66;64.98
84382;BME280;74572;51.834;5.820;2024-01-10T08:29:37;103078.13;;;-5.60;64.62
84382;BME280;74572;51.834;5.820;2024-01-10T08:32:05;103079.94;;;-5.59;64.30
84382;BME280;74572;51.834;5.820;2024-01-10T08:34:31;103082.84;;;-5.56;64.61
84382;BME280;74572;51.834;5.820;2024-01-10T08:36:57;103080.84;;;-5.52;64.15
84382;BME280;74572;51.834;5.820;2024-01-10T08:39:22;103073.22;;;-5.48;64.17
84382;BME280;74572;51.834;5.820;2024-01-10T08:41:50;103067.38;;;-5.43;63.69
84382;BME280;74572;51.834;5.820;2024-01-10T08:44:16;103066.03;;;-5.41;63.60
84382;BME280;74572;51.834;5.820;2024-01-10T08:46:45;103068.97;;;-5.38;63.86
84382;BME280;74572;51.834;5.820;2024-01-10T08:49:12;103077.78;;;-5.35;63.18
84382;BME280;74572;51.834;5.820;2024-01-10T08:51:37;103074.19;;;-5.31;62.91
84382;BME280;74572;51.834;5.820;2024-01-10T08:54:03;103080.53;;;-5.28;62.71
84382;BME280;74572;51.834;5.820;2024-01-10T08:56:33;103078.28;;;-5.26;62.78
84382;BME280;74572;51.834;5.820;2024-01-10T08:59:01;103067.47;;;-5.21;62.83
84382;BME280;74572;51.834;5.820;2024-01-10T09:01:30;103067.91;;;-5.18;62.86
84382;BME280;74572;51.834;5.820;2024-01-10T09:03:57;103058.03;;;-5.12;62.89
84382;BME280;74572;51.834;5.820;2024-01-10T09:06:22;103074.28;;;-5.09;62.76
84382;BME280;74572;51.834;5.820;2024-01-10T09:08:47;103062.56;;;-5.04;62.66
84382;BME280;74572;51.834;5.820;2024-01-10T09:11:13;103063.47;;;-4.98;61.43
84382;BME280;74572;51.834;5.820;2024-01-10T09:13:39;103066.19;;;-4.97;61.38
84382;BME280;74572;51.834;5.820;2024-01-10T09:16:05;103060.34;;;-4.92;61.06
84382;BME280;74572;51.834;5.820;2024-01-10T09:18:31;103070.53;;;-4.84;61.30
84382;BME280;74572;51.834;5.820;2024-01-10T09:20:56;103071.19;;;-4.80;61.28
84382;BME280;74572;51.834;5.820;2024-01-10T09:23:23;103066.69;;;-4.77;61.57
84382;BME280;74572;51.834;5.820;2024-01-10T09:25:50;103068.50;;;-4.70;61.64
84382;BME280;74572;51.834;5.820;2024-01-10T09:28:15;103068.31;;;-4.66;60.48
84382;BME280;74572;51.834;5.820;2024-01-10T09:30:41;103069.84;;;-4.61;61.46
84382;BME280;74572;51.834;5.820;2024-01-10T09:33:06;103077.78;;;-4.53;60.52
84382;BME280;74572;51.834;5.820;2024-01-10T09:35:34;103078.25;;;-4.44;60.83
84382;BME280;74572;51.834;5.820;2024-01-10T09:38:00;103073.13;;;-3.43;59.07
84382;BME280;74572;51.834;5.820;2024-01-10T09:40:27;103046.09;;;0.02;53.52
84382;BME280;74572;51.834;5.820;2024-01-10T09:42:54;103043.03;;;2.01;50.58
84382;BME280;74572;51.834;5.820;2024-01-10T09:45:21;103052.22;;;3.46;48.71
84382;BME280;74572;51.834;5.820;2024-01-10T09:47:49;103053.03;;;4.62;48.11
84382;BME280;74572;51.834;5.820;2024-01-10T09:50:14;103057.91;;;5.43;48.29
84382;BME280;74572;51.834;5.820;2024-01-10T09:52:52;103045.22;;;5.05;47.97
84382;BME280;74572;51.834;5.820;2024-01-10T09:55:23;103051.38;;;4.33;48.98
84382;BME280;74572;51.834;5.820;2024-01-10T09:57:49;103058.47;;;4.58;48.66
84382;BME280;74572;51.834;5.820;2024-01-10T10:00:15;103057.63;;;5.56;46.08
84382;BME280;74572;51.834;5.820;2024-01-10T10:02:46;103054.00;;;5.38;45.61
84382;BME280;74572;51.834;5.820;2024-01-10T10:05:32;103054.22;;;4.80;45.97
84382;BME280;74572;51.834;5.820;2024-01-10T10:08:00;103050.06;;;4.80;46.11
84382;BME280;74572;51.834;5.820;2024-01-10T10:10:29;103053.91;;;4.26;44.88
84382;BME280;74572;51.834;5.820;2024-01-10T10:12:56;103055.44;;;2.96;46.82
84382;BME280;74572;51.834;5.820;2024-01-10T10:15:22;103038.75;;;3.32;44.96
84382;BME280;74572;51.834;5.820;2024-01-10T10:17:51;103050.81;;;3.41;45.50
84382;BME280;74572;51.834;5.820;2024-01-10T10:20:31;103043.19;;;3.91;44.59
84382;BME280;74572;51.834;5.820;2024-01-10T10:23:07;103056.38;;;3.74;44.55
84382;BME280;74572;51.834;5.820;2024-01-10T10:25:37;103052.25;;;3.25;44.49
84382;BME280;74572;51.834;5.820;2024-01-10T10:28:07;103058.38;;;2.17;46.13
84382;BME280;74572;51.834;5.820;2024-01-10T10:30:33;103062.06;;;1.72;46.22
84382;BME280;74572;51.834;5.820;2024-01-10T10:33:05;103070.59;;;0.88;47.37
84382;BME280;74572;51.834;5.820;2024-01-10T10:35:33;103058.66;;;0.80;47.48
84382;BME280;74572;51.834;5.820;2024-01-10T10:37:59;103052.06;;;1.13;45.59
84382;BME280;74572;51.834;5.820;2024-01-10T10:40:25;103040.72;;;1.76;44.07
84382;BME280;74572;51.834;5.820;2024-01-10T10:42:57;103044.13;;;2.37;43.76
84382;BME280;74572;51.834;5.820;2024-01-10T10:45:23;103043.38;;;1.97;44.33
84382;BME280;74572;51.834;5.820;2024-01-10T10:47:57;103038.75;;;1.07;46.32
84382;BME280;74572;51.834;5.820;2024-01-10T10:50:24;103042.78;;;0.99;45.57
84382;BME280;74572;51.834;5.820;2024-01-10T10:52:52;103043.28;;;0.77;45.65
84382;BME280;74572;51.834;5.820;2024-01-10T10:55:22;103045.34;;;0.41;46.06
84382;BME280;74572;51.834;5.820;2024-01-10T10:57:49;103048.50;;;0.08;45.89
84382;BME280;74572;51.834;5.820;2024-01-10T11:00:17;103042.59;;;-0.06;47.07
84382;BME280;74572;51.834;5.820;2024-01-10T11:02:44;103044.56;;;-0.16;47.76
84382;BME280;74572;51.834;5.820;2024-01-10T11:05:11;103039.69;;;-0.21;47.20
84382;BME280;74572;51.834;5.820;2024-01-10T11:07:44;103045.81;;;-0.19;47.57
84382;BME280;74572;51.834;5.820;2024-01-10T11:10:20;103044.56;;;-0.16;48.06
84382;BME280;74572;51.834;5.820;2024-01-10T11:13:18;103039.09;;;-0.13;47.48
84382;BME280;74572;51.834;5.820;2024-01-10T11:16:28;103036.47;;;-0.33;46.90
84382;BME280;74572;51.834;5.820;2024-01-10T11:19:38;103040.97;;;-0.43;46.84
84382;BME280;74572;51.834;5.820;2024-01-10T11:25:12;103031.63;;;-0.57;46.24
84382;BME280;74572;51.834;5.820;2024-01-10T11:27:42;103023.94;;;-0.58;46.99
84382;BME280;74572;51.834;5.820;2024-01-10T11:30:11;103017.16;;;-0.59;46.53
84382;BME280;74572;51.834;5.820;2024-01-10T11:32:37;103013.13;;;-0.64;46.31
84382;BME280;74572;51.834;5.820;2024-01-10T11:35:15;103025.72;;;-0.57;46.36
84382;BME280;74572;51.834;5.820;2024-01-10T11:37:47;103015.03;;;-0.56;46.74
84382;BME280;74572;51.834;5.820;2024-01-10T11:40:15;103016.53;;;-0.51;46.44
84382;BME280;74572;51.834;5.820;2024-01-10T11:42:45;103021.06;;;-0.49;46.47
84382;BME280;74572;51.834;5.820;2024-01-10T11:45:50;103011.94;;;-0.48;46.25
84382;BME280;74572;51.834;5.820;2024-01-10T11:48:24;103011.59;;;-0.39;45.67
84382;BME280;74572;51.834;5.820;2024-01-10T11:50:52;103004.78;;;-0.40;45.08
84382;BME280;74572;51.834;5.820;2024-01-10T11:53:41;103004.38;;;-0.43;45.67
84382;BME280;74572;51.834;5.820;2024-01-10T11:56:15;103004.16;;;-0.44;45.09
84382;BME280;74572;51.834;5.820;2024-01-10T11:59:01;103006.47;;;-0.46;45.22
84382;BME280;74572;51.834;5.820;2024-01-10T12:01:31;103007.97;;;-0.41;45.84
84382;BME280;74572;51.834;5.820;2024-01-10T12:03:59;103001.38;;;-0.40;45.42
84382;BME280;74572;51.834;5.820;2024-01-10T12:06:26;103000.34;;;-0.35;45.76
84382;BME280;74572;51.834;5.820;2024-01-10T12:08:51;103008.75;;;-0.35;45.33
84382;BME280;74572;51.834;5.820;2024-01-10T12:11:17;103002.56;;;-0.31;45.38
84382;BME280;74572;51.834;5.820;2024-01-10T12:13:43;103000.84;;;-0.38;45.50
84382;BME280;74572;51.834;5.820;2024-01-10T12:16:11;102997.44;;;-0.38;45.34
84382;BME280;74572;51.834;5.820;2024-01-10T12:18:37;103007.84;;;-0.35;45.39
84382;BME280;74572;51.834;5.820;2024-01-10T12:21:02;103007.84;;;-0.35;45.31
84382;BME280;74572;51.834;5.820;2024-01-10T12:23:28;103004.16;;;-0.31;45.33
84382;BME280;74572;51.834;5.820;2024-01-10T12:26:07;102998.25;;;-0.32;44.87
84382;BME280;74572;51.834;5.820;2024-01-10T12:28:37;102993.97;;;-0.33;44.38
84382;BME280;74572;51.834;5.820;2024-01-10T12:31:06;103008.25;;;-0.32;44.64
84382;BME280;74572;51.834;5.820;2024-01-10T12:33:37;102993.66;;;-0.29;44.88
84382;BME280;74572;51.834;5.820;2024-01-10T12:36:06;103001.38;;;-0.27;44.93
84382;BME280;74572;51.834;5.820;2024-01-10T12:38:33;103000.19;;;-0.24;44.90
84382;BME280;74572;51.834;5.820;2024-01-10T12:40:59;103004.06;;;-0.26;44.27
84382;BME280;74572;51.834;5.820;2024-01-10T12:43:27;103004.78;;;-0.27;44.13
84382;BME280;74572;51.834;5.820;2024-01-10T12:46:03;102994.97;;;-0.25;43.99
84382;BME280;74572;51.834;5.820;2024-01-10T12:48:30;102996.28;;;-0.22;44.39
84382;BME280;74572;51.834;5.820;2024-01-10T12:50:58;103008.47;;;-0.18;44.32
84382;BME280;74572;51.834;5.820;2024-01-10T12:53:29;103001.66;;;-0.19;43.41
84382;BME280;74572;51.834;5.820;2024-01-10T12:55:57;102999.97;;;-0.13;44.34